sensor_id;sensor_type;location;lat;lon;timestamp;P1;durP1;ratioP1;P2;durP2;ratioP2
42682;SDS011;28293;50.930;3.464;2022-12-17T00:01:32;67.95;;;45.63;;
42682;SDS011;28293;50.930;3.464;2022-12-17T00:04:17;65.05;;;45.55;;
42682;SDS011;28293;50.930;3.464;2022-12-17T00:07:01;69.95;;;45.47;;
42682;SDS011;28293;50.930;3.464;2022-12-17T00:09:46;67.07;;;46.70;;
42682;SDS011;28293;50.930;3.464;2022-12-17T00:12:30;72.50;;;45.70;;
42682;SDS011;28293;50.930;3.464;2022-12-17T00:15:14;62.67;;;44.65;;
42682;SDS011;28293;50.930;3.464;2022-12-17T00:18:06;67.90;;;44.83;;
42682;SDS011;28293;50.930;3.464;2022-12-17T00:20:56;57.70;;;42.22;;
42682;SDS011;28293;50.930;3.464;2022-12-17T00:23:43;58.25;;;42.85;;
42682;SDS011;28293;50.930;3.464;2022-12-17T00:26:28;61.85;;;40.40;;
42682;SDS011;28293;50.930;3.464;2022-12-17T00:29:15;54.40;;;39.90;;
42682;SDS011;28293;50.930;3.464;2022-12-17T00:31:59;57.08;;;41.50;;
42682;SDS011;28293;50.930;3.464;2022-12-17T00:34:44;56.10;;;39.25;;
42682;SDS011;28293;50.930;3.464;2022-12-17T00:37:28;55.90;;;39.22;;
42682;SDS011;28293;50.930;3.464;2022-12-17T00:40:13;55.50;;;39.03;;
42682;SDS011;28293;50.930;3.464;2022-12-17T00:43:06;54.75;;;39.65;;
42682;SDS011;28293;50.930;3.464;2022-12-17T00:45:52;60.38;;;39.35;;
42682;SDS011;28293;50.930;3.464;2022-12-17T00:48:37;58.25;;;40.80;;
42682;SDS011;28293;50.930;3.464;2022-12-17T00:51:21;55.17;;;41.53;;
42682;SDS011;28293;50.930;3.464;2022-12-17T00:54:06;55.40;;;38.83;;
42682;SDS011;28293;50.930;3.464;2022-12-17T00:56:51;53.28;;;40.20;;
42682;SDS011;28293;50.930;3.464;2022-12-17T00:59:35;58.08;;;39.25;;
42682;SDS011;28293;50.930;3.464;2022-12-17T01:02:20;60.15;;;39.85;;
42682;SDS011;28293;50.930;3.464;2022-12-17T01:05:05;62.40;;;39.35;;
42682;SDS011;28293;50.930;3.464;2022-12-17T01:07:51;55.03;;;39.15;;
42682;SDS011;28293;50.930;3.464;2022-12-17T01:10:36;55.73;;;38.87;;
42682;SDS011;28293;50.930;3.464;2022-12-17T01:13:22;55.83;;;40.90;;
42682;SDS011;28293;50.930;3.464;2022-12-17T01:16:14;62.80;;;42.05;;
42682;SDS011;28293;50.930;3.464;2022-12-17T01:18:59;59.63;;;40.25;;
42682;SDS011;28293;50.930;3.464;2022-12-17T01:21:43;58.38;;;38.83;;
42682;SDS011;28293;50.930;3.464;2022-12-17T01:27:15;64.25;;;42.80;;
42682;SDS011;28293;50.930;3.464;2022-12-17T01:29:59;62.45;;;42.85;;
42682;SDS011;28293;50.930;3.464;2022-12-17T01:32:43;70.13;;;45.03;;
42682;SDS011;28293;50.930;3.464;2022-12-17T01:35:27;66.03;;;43.00;;
42682;SDS011;28293;50.930;3.464;2022-12-17T01:38:12;68.18;;;46.40;;
42682;SDS011;28293;50.930;3.464;2022-12-17T01:41:00;64.40;;;44.58;;
42682;SDS011;28293;50.930;3.464;2022-12-17T01:43:45;60.53;;;43.17;;
42682;SDS011;28293;50.930;3.464;2022-12-17T01:46:38;64.30;;;43.83;;
42682;SDS011;28293;50.930;3.464;2022-12-17T01:49:27;63.38;;;42.13;;
42682;SDS011;28293;50.930;3.464;2022-12-17T01:52:14;64.35;;;45.45;;
42682;SDS011;28293;50.930;3.464;2022-12-17T01:55:00;61.67;;;43.70;;
42682;SDS011;28293;50.930;3.464;2022-12-17T01:57:52;59.15;;;42.92;;
42682;SDS011;28293;50.930;3.464;2022-12-17T02:00:39;61.63;;;43.53;;
42682;SDS011;28293;50.930;3.464;2022-12-17T02:03:25;65.30;;;46.10;;
42682;SDS011;28293;50.930;3.464;2022-12-17T02:06:11;67.00;;;46.10;;
42682;SDS011;28293;50.930;3.464;2022-12-17T02:12:33;64.53;;;45.38;;
42682;SDS011;28293;50.930;3.464;2022-12-17T02:15:33;61.80;;;43.78;;
42682;SDS011;28293;50.930;3.464;2022-12-17T02:18:47;67.10;;;45.80;;
42682;SDS011;28293;50.930;3.464;2022-12-17T02:21:36;62.33;;;45.17;;
42682;SDS011;28293;50.930;3.464;2022-12-17T02:24:44;63.03;;;44.53;;
42682;SDS011;28293;50.930;3.464;2022-12-17T02:27:42;68.97;;;45.25;;
42682;SDS011;28293;50.930;3.464;2022-12-17T02:30:29;73.45;;;47.85;;
42682;SDS011;28293;50.930;3.464;2022-12-17T02:33:14;67.63;;;44.95;;
42682;SDS011;28293;50.930;3.464;2022-12-17T02:36:01;60.58;;;43.75;;
42682;SDS011;28293;50.930;3.464;2022-12-17T02:38:48;61.17;;;45.08;;
42682;SDS011;28293;50.930;3.464;2022-12-17T02:41:40;67.95;;;44.90;;
42682;SDS011;28293;50.930;3.464;2022-12-17T02:44:36;61.60;;;43.85;;
42682;SDS011;28293;50.930;3.464;2022-12-17T02:47:22;61.05;;;42.35;;
42682;SDS011;28293;50.930;3.464;2022-12-17T02:50:10;63.42;;;44.65;;
42682;SDS011;28293;50.930;3.464;2022-12-17T02:55:43;56.28;;;41.15;;
42682;SDS011;28293;50.930;3.464;2022-12-17T02:58:30;65.70;;;44.53;;
42682;SDS011;28293;50.930;3.464;2022-12-17T03:01:15;58.40;;;42.40;;
42682;SDS011;28293;50.930;3.464;2022-12-17T03:03:59;62.83;;;43.83;;
42682;SDS011;28293;50.930;3.464;2022-12-17T03:06:43;62.75;;;43.10;;
42682;SDS011;28293;50.930;3.464;2022-12-17T03:09:27;62.27;;;44.43;;
42682;SDS011;28293;50.930;3.464;2022-12-17T03:12:11;60.60;;;41.67;;
42682;SDS011;28293;50.930;3.464;2022-12-17T03:14:56;59.17;;;42.42;;
42682;SDS011;28293;50.930;3.464;2022-12-17T03:17:40;63.22;;;43.72;;
42682;SDS011;28293;50.930;3.464;2022-12-17T03:20:24;61.35;;;43.25;;
42682;SDS011;28293;50.930;3.464;2022-12-17T03:23:11;61.42;;;42.70;;
42682;SDS011;28293;50.930;3.464;2022-12-17T03:25:57;63.50;;;45.60;;
42682;SDS011;28293;50.930;3.464;2022-12-17T03:28:42;56.20;;;41.05;;
42682;SDS011;28293;50.930;3.464;2022-12-17T03:31:29;61.63;;;42.22;;
42682;SDS011;28293;50.930;3.464;2022-12-17T03:34:14;60.65;;;40.88;;
42682;SDS011;28293;50.930;3.464;2022-12-17T03:37:01;56.35;;;40.38;;
42682;SDS011;28293;50.930;3.464;2022-12-17T03:39:47;66.93;;;46.28;;
42682;SDS011;28293;50.930;3.464;2022-12-17T03:42:34;66.47;;;44.50;;
42682;SDS011;28293;50.930;3.464;2022-12-17T03:45:21;66.20;;;43.78;;
42682;SDS011;28293;50.930;3.464;2022-12-17T03:48:06;64.47;;;43.05;;
42682;SDS011;28293;50.930;3.464;2022-12-17T03:50:55;61.67;;;42.55;;
42682;SDS011;28293;50.930;3.464;2022-12-17T03:53:40;60.03;;;41.78;;
42682;SDS011;28293;50.930;3.464;2022-12-17T03:56:24;62.60;;;42.33;;
42682;SDS011;28293;50.930;3.464;2022-12-17T03:59:09;64.37;;;42.17;;
42682;SDS011;28293;50.930;3.464;2022-12-17T04:01:55;62.38;;;42.67;;
42682;SDS011;28293;50.930;3.464;2022-12-17T04:04:42;62.63;;;40.65;;
42682;SDS011;28293;50.930;3.464;2022-12-17T04:07:29;64.28;;;43.50;;
42682;SDS011;28293;50.930;3.464;2022-12-17T04:10:13;59.92;;;42.05;;
42682;SDS011;28293;50.930;3.464;2022-12-17T04:13:03;63.33;;;42.03;;
42682;SDS011;28293;50.930;3.464;2022-12-17T04:15:50;61.92;;;42.45;;
42682;SDS011;28293;50.930;3.464;2022-12-17T04:18:34;58.20;;;41.10;;
42682;SDS011;28293;50.930;3.464;2022-12-17T04:21:21;59.25;;;39.75;;
42682;SDS011;28293;50.930;3.464;2022-12-17T04:24:05;56.10;;;39.53;;
42682;SDS011;28293;50.930;3.464;2022-12-17T04:26:52;59.10;;;38.92;;
42682;SDS011;28293;50.930;3.464;2022-12-17T04:29:37;58.92;;;38.95;;
42682;SDS011;28293;50.930;3.464;2022-12-17T04:32:26;64.43;;;40.40;;
42682;SDS011;28293;50.930;3.464;2022-12-17T04:35:10;65.47;;;40.33;;
42682;SDS011;28293;50.930;3.464;2022-12-17T04:37:54;61.73;;;39.90;;
42682;SDS011;28293;50.930;3.464;2022-12-17T04:40:39;59.00;;;39.33;;
42682;SDS011;28293;50.930;3.464;2022-12-17T04:43:23;64.43;;;41.63;;
42682;SDS011;28293;50.930;3.464;2022-12-17T04:46:10;62.63;;;40.17;;
42682;SDS011;28293;50.930;3.464;2022-12-17T04:48:57;61.90;;;39.20;;
42682;SDS011;28293;50.930;3.464;2022-12-17T04:51:41;61.90;;;39.55;;
42682;SDS011;28293;50.930;3.464;2022-12-17T04:54:25;59.60;;;39.15;;
42682;SDS011;28293;50.930;3.464;2022-12-17T04:57:20;55.65;;;36.78;;
42682;SDS011;28293;50.930;3.464;2022-12-17T05:00:17;63.65;;;39.10;;
42682;SDS011;28293;50.930;3.464;2022-12-17T05:03:03;65.90;;;39.88;;
42682;SDS011;28293;50.930;3.464;2022-12-17T05:05:48;62.58;;;37.45;;
42682;SDS011;28293;50.930;3.464;2022-12-17T05:08:34;60.58;;;37.38;;
42682;SDS011;28293;50.930;3.464;2022-12-17T05:11:19;71.32;;;38.78;;
42682;SDS011;28293;50.930;3.464;2022-12-17T05:14:05;65.72;;;38.53;;
42682;SDS011;28293;50.930;3.464;2022-12-17T05:16:49;61.65;;;38.22;;
42682;SDS011;28293;50.930;3.464;2022-12-17T05:19:36;60.42;;;37.90;;
42682;SDS011;28293;50.930;3.464;2022-12-17T05:22:20;67.53;;;39.63;;
42682;SDS011;28293;50.930;3.464;2022-12-17T05:25:05;65.38;;;39.20;;
42682;SDS011;28293;50.930;3.464;2022-12-17T05:27:50;66.45;;;38.70;;
42682;SDS011;28293;50.930;3.464;2022-12-17T05:30:37;65.57;;;38.97;;
42682;SDS011;28293;50.930;3.464;2022-12-17T05:33:23;73.05;;;38.63;;
42682;SDS011;28293;50.930;3.464;2022-12-17T05:36:13;68.25;;;38.08;;
42682;SDS011;28293;50.930;3.464;2022-12-17T05:38:59;63.40;;;39.15;;
42682;SDS011;28293;50.930;3.464;2022-12-17T05:41:44;66.45;;;37.88;;
42682;SDS011;28293;50.930;3.464;2022-12-17T05:44:44;61.08;;;38.08;;
42682;SDS011;28293;50.930;3.464;2022-12-17T05:47:28;60.78;;;37.35;;
42682;SDS011;28293;50.930;3.464;2022-12-17T05:50:13;69.30;;;39.35;;
42682;SDS011;28293;50.930;3.464;2022-12-17T05:53:01;64.47;;;37.60;;
42682;SDS011;28293;50.930;3.464;2022-12-17T05:55:47;60.75;;;36.97;;
42682;SDS011;28293;50.930;3.464;2022-12-17T05:58:34;55.35;;;35.45;;
42682;SDS011;28293;50.930;3.464;2022-12-17T06:01:19;60.33;;;37.45;;
42682;SDS011;28293;50.930;3.464;2022-12-17T06:04:03;64.10;;;36.95;;
42682;SDS011;28293;50.930;3.464;2022-12-17T06:06:47;67.72;;;37.88;;
42682;SDS011;28293;50.930;3.464;2022-12-17T06:09:32;63.47;;;36.38;;
42682;SDS011;28293;50.930;3.464;2022-12-17T06:12:16;66.50;;;38.33;;
42682;SDS011;28293;50.930;3.464;2022-12-17T06:15:00;65.57;;;39.53;;
42682;SDS011;28293;50.930;3.464;2022-12-17T06:17:53;65.70;;;39.25;;
42682;SDS011;28293;50.930;3.464;2022-12-17T06:20:38;57.90;;;38.20;;
42682;SDS011;28293;50.930;3.464;2022-12-17T06:23:22;68.20;;;38.60;;
42682;SDS011;28293;50.930;3.464;2022-12-17T06:26:07;63.67;;;38.60;;
42682;SDS011;28293;50.930;3.464;2022-12-17T06:28:51;63.10;;;39.08;;
42682;SDS011;28293;50.930;3.464;2022-12-17T06:31:37;65.90;;;39.25;;
42682;SDS011;28293;50.930;3.464;2022-12-17T06:34:24;55.80;;;38.50;;
42682;SDS011;28293;50.930;3.464;2022-12-17T06:37:11;64.32;;;39.10;;
42682;SDS011;28293;50.930;3.464;2022-12-17T06:39:55;70.13;;;41.60;;
42682;SDS011;28293;50.930;3.464;2022-12-17T06:43:04;72.50;;;43.75;;
42682;SDS011;28293;50.930;3.464;2022-12-17T06:45:50;67.22;;;42.55;;
42682;SDS011;28293;50.930;3.464;2022-12-17T06:48:36;63.63;;;40.70;;
42682;SDS011;28293;50.930;3.464;2022-12-17T06:51:37;68.28;;;43.70;;
42682;SDS011;28293;50.930;3.464;2022-12-17T06:54:24;67.47;;;43.05;;
42682;SDS011;28293;50.930;3.464;2022-12-17T06:57:08;70.80;;;43.88;;
42682;SDS011;28293;50.930;3.464;2022-12-17T06:59:52;72.90;;;44.07;;
42682;SDS011;28293;50.930;3.464;2022-12-17T07:02:36;68.22;;;42.88;;
42682;SDS011;28293;50.930;3.464;2022-12-17T07:05:23;67.83;;;42.83;;
42682;SDS011;28293;50.930;3.464;2022-12-17T07:08:07;69.90;;;44.45;;
42682;SDS011;28293;50.930;3.464;2022-12-17T07:10:54;74.83;;;46.60;;
42682;SDS011;28293;50.930;3.464;2022-12-17T07:13:40;67.88;;;44.15;;
42682;SDS011;28293;50.930;3.464;2022-12-17T07:16:24;69.47;;;45.35;;
42682;SDS011;28293;50.930;3.464;2022-12-17T07:19:08;77.00;;;47.37;;
42682;SDS011;28293;50.930;3.464;2022-12-17T07:21:57;62.55;;;42.47;;
42682;SDS011;28293;50.930;3.464;2022-12-17T07:24:41;73.82;;;44.47;;
42682;SDS011;28293;50.930;3.464;2022-12-17T07:27:25;75.03;;;44.92;;
42682;SDS011;28293;50.930;3.464;2022-12-17T07:30:10;72.22;;;43.67;;
42682;SDS011;28293;50.930;3.464;2022-12-17T07:33:00;74.55;;;45.65;;
42682;SDS011;28293;50.930;3.464;2022-12-17T07:35:47;73.82;;;47.63;;
42682;SDS011;28293;50.930;3.464;2022-12-17T07:38:31;70.13;;;45.57;;
42682;SDS011;28293;50.930;3.464;2022-12-17T07:41:15;68.83;;;44.53;;
42682;SDS011;28293;50.930;3.464;2022-12-17T07:44:02;69.07;;;44.42;;
42682;SDS011;28293;50.930;3.464;2022-12-17T07:46:47;69.43;;;44.75;;
42682;SDS011;28293;50.930;3.464;2022-12-17T07:49:34;70.95;;;44.60;;
42682;SDS011;28293;50.930;3.464;2022-12-17T07:52:18;73.88;;;44.25;;
42682;SDS011;28293;50.930;3.464;2022-12-17T07:55:05;66.25;;;42.33;;
42682;SDS011;28293;50.930;3.464;2022-12-17T07:58:09;67.95;;;44.88;;
42682;SDS011;28293;50.930;3.464;2022-12-17T08:00:54;67.88;;;45.72;;
42682;SDS011;28293;50.930;3.464;2022-12-17T08:03:42;72.53;;;44.95;;
42682;SDS011;28293;50.930;3.464;2022-12-17T08:06:26;74.47;;;47.38;;
42682;SDS011;28293;50.930;3.464;2022-12-17T08:09:10;78.80;;;48.35;;
42682;SDS011;28293;50.930;3.464;2022-12-17T08:11:57;68.63;;;45.38;;
42682;SDS011;28293;50.930;3.464;2022-12-17T08:14:41;69.43;;;44.53;;
42682;SDS011;28293;50.930;3.464;2022-12-17T08:17:26;78.18;;;44.70;;
42682;SDS011;28293;50.930;3.464;2022-12-17T08:20:20;74.78;;;44.35;;
42682;SDS011;28293;50.930;3.464;2022-12-17T08:23:08;69.57;;;43.88;;
42682;SDS011;28293;50.930;3.464;2022-12-17T08:25:53;71.28;;;45.63;;
42682;SDS011;28293;50.930;3.464;2022-12-17T08:28:39;75.05;;;46.50;;
42682;SDS011;28293;50.930;3.464;2022-12-17T08:31:26;73.22;;;45.80;;
42682;SDS011;28293;50.930;3.464;2022-12-17T08:34:10;71.32;;;46.78;;
42682;SDS011;28293;50.930;3.464;2022-12-17T08:36:55;79.67;;;46.67;;
42682;SDS011;28293;50.930;3.464;2022-12-17T08:39:39;78.32;;;48.10;;
42682;SDS011;28293;50.930;3.464;2022-12-17T08:42:23;77.43;;;47.50;;
42682;SDS011;28293;50.930;3.464;2022-12-17T08:45:13;74.88;;;46.03;;
42682;SDS011;28293;50.930;3.464;2022-12-17T08:48:01;78.50;;;47.92;;
42682;SDS011;28293;50.930;3.464;2022-12-17T08:50:47;69.55;;;46.72;;
42682;SDS011;28293;50.930;3.464;2022-12-17T08:53:31;74.25;;;48.63;;
42682;SDS011;28293;50.930;3.464;2022-12-17T08:56:15;78.22;;;49.53;;
42682;SDS011;28293;50.930;3.464;2022-12-17T08:58:59;75.50;;;47.42;;
42682;SDS011;28293;50.930;3.464;2022-12-17T09:01:44;77.85;;;48.70;;
42682;SDS011;28293;50.930;3.464;2022-12-17T09:05:23;75.15;;;46.75;;
42682;SDS011;28293;50.930;3.464;2022-12-17T09:08:07;71.80;;;44.90;;
42682;SDS011;28293;50.930;3.464;2022-12-17T09:10:54;75.23;;;46.33;;
42682;SDS011;28293;50.930;3.464;2022-12-17T09:13:42;67.97;;;43.80;;
42682;SDS011;28293;50.930;3.464;2022-12-17T09:16:29;68.85;;;46.50;;
42682;SDS011;28293;50.930;3.464;2022-12-17T09:19:14;68.72;;;47.88;;
42682;SDS011;28293;50.930;3.464;2022-12-17T09:21:58;74.33;;;46.77;;
42682;SDS011;28293;50.930;3.464;2022-12-17T09:24:44;71.90;;;46.78;;
42682;SDS011;28293;50.930;3.464;2022-12-17T09:27:31;71.55;;;46.75;;
42682;SDS011;28293;50.930;3.464;2022-12-17T09:30:15;73.28;;;46.97;;
42682;SDS011;28293;50.930;3.464;2022-12-17T09:32:59;64.57;;;45.40;;
42682;SDS011;28293;50.930;3.464;2022-12-17T09:35:44;66.97;;;45.90;;
42682;SDS011;28293;50.930;3.464;2022-12-17T09:38:38;69.80;;;45.13;;
42682;SDS011;28293;50.930;3.464;2022-12-17T09:41:27;63.78;;;44.60;;
42682;SDS011;28293;50.930;3.464;2022-12-17T09:44:37;68.60;;;43.85;;
42682;SDS011;28293;50.930;3.464;2022-12-17T09:50:12;64.18;;;44.85;;
42682;SDS011;28293;50.930;3.464;2022-12-17T09:53:01;67.07;;;46.58;;
42682;SDS011;28293;50.930;3.464;2022-12-17T09:55:58;67.78;;;45.13;;
42682;SDS011;28293;50.930;3.464;2022-12-17T09:58:43;67.03;;;47.38;;
42682;SDS011;28293;50.930;3.464;2022-12-17T10:01:33;76.05;;;50.60;;
42682;SDS011;28293;50.930;3.464;2022-12-17T10:04:51;80.15;;;51.88;;
42682;SDS011;28293;50.930;3.464;2022-12-17T10:07:31;72.43;;;47.92;;
42682;SDS011;28293;50.930;3.464;2022-12-17T10:10:22;75.35;;;50.08;;
42682;SDS011;28293;50.930;3.464;2022-12-17T10:13:21;78.70;;;48.97;;
42682;SDS011;28293;50.930;3.464;2022-12-17T10:16:17;73.57;;;47.58;;
42682;SDS011;28293;50.930;3.464;2022-12-17T10:19:07;67.50;;;48.10;;
42682;SDS011;28293;50.930;3.464;2022-12-17T10:22:14;74.53;;;47.08;;
42682;SDS011;28293;50.930;3.464;2022-12-17T10:25:16;77.97;;;45.30;;
42682;SDS011;28293;50.930;3.464;2022-12-17T10:28:04;72.95;;;45.88;;
42682;SDS011;28293;50.930;3.464;2022-12-17T10:30:54;69.38;;;45.53;;
42682;SDS011;28293;50.930;3.464;2022-12-17T10:33:40;64.97;;;45.40;;
42682;SDS011;28293;50.930;3.464;2022-12-17T10:36:26;73.25;;;47.20;;
42682;SDS011;28293;50.930;3.464;2022-12-17T10:39:14;75.72;;;49.53;;
42682;SDS011;28293;50.930;3.464;2022-12-17T10:42:01;77.32;;;50.53;;
42682;SDS011;28293;50.930;3.464;2022-12-17T10:44:46;74.40;;;51.50;;
42682;SDS011;28293;50.930;3.464;2022-12-17T10:47:35;73.72;;;49.67;;
42682;SDS011;28293;50.930;3.464;2022-12-17T10:50:27;78.20;;;50.78;;
42682;SDS011;28293;50.930;3.464;2022-12-17T10:53:18;74.28;;;51.05;;
42682;SDS011;28293;50.930;3.464;2022-12-17T10:56:06;78.30;;;50.58;;
42682;SDS011;28293;50.930;3.464;2022-12-17T10:59:09;78.57;;;51.80;;
42682;SDS011;28293;50.930;3.464;2022-12-17T11:01:57;76.72;;;51.67;;
42682;SDS011;28293;50.930;3.464;2022-12-17T11:04:50;75.35;;;50.58;;
42682;SDS011;28293;50.930;3.464;2022-12-17T11:07:41;79.70;;;54.05;;
42682;SDS011;28293;50.930;3.464;2022-12-17T11:10:30;75.10;;;51.75;;
42682;SDS011;28293;50.930;3.464;2022-12-17T11:13:30;81.05;;;53.55;;
42682;SDS011;28293;50.930;3.464;2022-12-17T11:16:36;97.35;;;60.17;;
42682;SDS011;28293;50.930;3.464;2022-12-17T11:19:27;88.55;;;58.85;;
42682;SDS011;28293;50.930;3.464;2022-12-17T11:22:42;89.15;;;59.85;;
42682;SDS011;28293;50.930;3.464;2022-12-17T11:25:44;87.07;;;55.53;;
42682;SDS011;28293;50.930;3.464;2022-12-17T11:28:38;94.75;;;60.92;;
42682;SDS011;28293;50.930;3.464;2022-12-17T11:37:22;91.28;;;62.97;;
42682;SDS011;28293;50.930;3.464;2022-12-17T11:40:19;78.60;;;51.78;;
42682;SDS011;28293;50.930;3.464;2022-12-17T11:48:22;80.38;;;51.33;;
42682;SDS011;28293;50.930;3.464;2022-12-17T11:51:20;67.63;;;46.90;;
42682;SDS011;28293;50.930;3.464;2022-12-17T11:54:24;77.13;;;49.97;;
42682;SDS011;28293;50.930;3.464;2022-12-17T12:06:22;69.60;;;45.22;;
42682;SDS011;28293;50.930;3.464;2022-12-17T12:12:09;66.88;;;45.28;;
42682;SDS011;28293;50.930;3.464;2022-12-17T12:18:35;70.47;;;47.13;;
42682;SDS011;28293;50.930;3.464;2022-12-17T12:21:36;68.78;;;46.25;;
42682;SDS011;28293;50.930;3.464;2022-12-17T12:24:52;71.95;;;47.97;;
42682;SDS011;28293;50.930;3.464;2022-12-17T12:33:57;70.85;;;48.45;;
42682;SDS011;28293;50.930;3.464;2022-12-17T12:36:47;70.53;;;46.97;;
42682;SDS011;28293;50.930;3.464;2022-12-17T12:39:35;66.30;;;43.47;;
42682;SDS011;28293;50.930;3.464;2022-12-17T12:42:28;65.78;;;42.50;;
42682;SDS011;28293;50.930;3.464;2022-12-17T12:51:41;67.85;;;42.65;;
42682;SDS011;28293;50.930;3.464;2022-12-17T12:54:30;68.32;;;42.55;;
42682;SDS011;28293;50.930;3.464;2022-12-17T12:57:37;67.13;;;41.13;;
42682;SDS011;28293;50.930;3.464;2022-12-17T13:14:35;80.60;;;45.38;;
42682;SDS011;28293;50.930;3.464;2022-12-17T13:20:00;81.25;;;46.22;;
42682;SDS011;28293;50.930;3.464;2022-12-17T13:22:26;80.75;;;45.92;;
42682;SDS011;28293;50.930;3.464;2022-12-17T13:25:16;81.00;;;47.72;;
42682;SDS011;28293;50.930;3.464;2022-12-17T13:27:44;89.47;;;48.22;;
42682;SDS011;28293;50.930;3.464;2022-12-17T13:35:52;91.68;;;49.38;;
42682;SDS011;28293;50.930;3.464;2022-12-17T13:43:41;95.90;;;49.58;;
42682;SDS011;28293;50.930;3.464;2022-12-17T13:46:16;86.53;;;46.50;;
42682;SDS011;28293;50.930;3.464;2022-12-17T13:48:53;94.65;;;49.65;;
42682;SDS011;28293;50.930;3.464;2022-12-17T13:51:31;93.07;;;50.17;;
42682;SDS011;28293;50.930;3.464;2022-12-17T13:54:01;91.47;;;47.38;;
42682;SDS011;28293;50.930;3.464;2022-12-17T13:56:29;94.43;;;50.28;;
42682;SDS011;28293;50.930;3.464;2022-12-17T13:59:00;99.38;;;50.72;;
42682;SDS011;28293;50.930;3.464;2022-12-17T14:01:31;94.55;;;51.38;;
42682;SDS011;28293;50.930;3.464;2022-12-17T14:04:00;94.93;;;49.50;;
42682;SDS011;28293;50.930;3.464;2022-12-17T14:06:27;106.50;;;52.85;;
42682;SDS011;28293;50.930;3.464;2022-12-17T14:08:59;95.72;;;50.90;;
42682;SDS011;28293;50.930;3.464;2022-12-17T14:11:26;91.75;;;50.53;;
42682;SDS011;28293;50.930;3.464;2022-12-17T14:14:15;105.88;;;51.50;;
42682;SDS011;28293;50.930;3.464;2022-12-17T14:16:49;104.32;;;53.85;;
42682;SDS011;28293;50.930;3.464;2022-12-17T14:19:15;106.18;;;55.35;;
42682;SDS011;28293;50.930;3.464;2022-12-17T14:21:41;105.47;;;53.20;;
42682;SDS011;28293;50.930;3.464;2022-12-17T14:24:09;99.35;;;49.45;;
42682;SDS011;28293;50.930;3.464;2022-12-17T14:26:49;101.47;;;49.97;;
42682;SDS011;28293;50.930;3.464;2022-12-17T14:29:21;96.60;;;47.78;;
42682;SDS011;28293;50.930;3.464;2022-12-17T14:31:52;94.95;;;48.25;;
42682;SDS011;28293;50.930;3.464;2022-12-17T14:34:23;95.88;;;48.60;;
42682;SDS011;28293;50.930;3.464;2022-12-17T14:36:53;91.20;;;47.20;;
42682;SDS011;28293;50.930;3.464;2022-12-17T14:39:26;98.07;;;50.40;;
42682;SDS011;28293;50.930;3.464;2022-12-17T14:42:05;101.63;;;49.78;;
42682;SDS011;28293;50.930;3.464;2022-12-17T14:44:52;101.18;;;51.30;;
42682;SDS011;28293;50.930;3.464;2022-12-17T14:47:25;93.25;;;50.05;;
42682;SDS011;28293;50.930;3.464;2022-12-17T14:49:55;96.82;;;50.65;;
42682;SDS011;28293;50.930;3.464;2022-12-17T14:57:49;98.75;;;49.30;;
42682;SDS011;28293;50.930;3.464;2022-12-17T15:00:16;90.55;;;47.38;;
42682;SDS011;28293;50.930;3.464;2022-12-17T15:02:43;99.10;;;47.22;;
42682;SDS011;28293;50.930;3.464;2022-12-17T15:05:13;99.47;;;48.83;;
42682;SDS011;28293;50.930;3.464;2022-12-17T15:07:40;97.80;;;48.00;;
42682;SDS011;28293;50.930;3.464;2022-12-17T15:10:10;100.00;;;48.88;;
42682;SDS011;28293;50.930;3.464;2022-12-17T15:12:41;106.65;;;49.10;;
42682;SDS011;28293;50.930;3.464;2022-12-17T15:15:12;108.82;;;52.75;;
42682;SDS011;28293;50.930;3.464;2022-12-17T15:17:49;108.78;;;52.08;;
42682;SDS011;28293;50.930;3.464;2022-12-17T15:20:18;110.07;;;51.70;;
42682;SDS011;28293;50.930;3.464;2022-12-17T15:22:45;113.22;;;55.38;;
42682;SDS011;28293;50.930;3.464;2022-12-17T15:25:13;120.03;;;54.75;;
42682;SDS011;28293;50.930;3.464;2022-12-17T15:27:48;118.07;;;55.78;;
42682;SDS011;28293;50.930;3.464;2022-12-17T15:30:15;138.13;;;61.00;;
42682;SDS011;28293;50.930;3.464;2022-12-17T15:32:42;139.43;;;68.70;;
42682;SDS011;28293;50.930;3.464;2022-12-17T15:38:23;151.73;;;70.03;;
42682;SDS011;28293;50.930;3.464;2022-12-17T15:40:52;149.98;;;63.47;;
42682;SDS011;28293;50.930;3.464;2022-12-17T15:43:23;137.97;;;56.60;;
42682;SDS011;28293;50.930;3.464;2022-12-17T15:46:06;132.13;;;53.78;;
42682;SDS011;28293;50.930;3.464;2022-12-17T15:48:38;145.23;;;56.08;;
42682;SDS011;28293;50.930;3.464;2022-12-17T15:51:09;134.40;;;55.03;;
42682;SDS011;28293;50.930;3.464;2022-12-17T15:53:38;130.15;;;55.78;;
42682;SDS011;28293;50.930;3.464;2022-12-17T15:56:16;131.50;;;54.35;;
42682;SDS011;28293;50.930;3.464;2022-12-17T15:59:07;127.57;;;53.53;;
42682;SDS011;28293;50.930;3.464;2022-12-17T16:01:33;123.55;;;53.30;;
42682;SDS011;28293;50.930;3.464;2022-12-17T16:04:04;134.25;;;54.63;;
42682;SDS011;28293;50.930;3.464;2022-12-17T16:06:40;127.22;;;52.35;;
42682;SDS011;28293;50.930;3.464;2022-12-17T16:09:06;119.47;;;51.42;;
42682;SDS011;28293;50.930;3.464;2022-12-17T16:11:55;111.28;;;48.40;;
42682;SDS011;28293;50.930;3.464;2022-12-17T16:14:23;131.80;;;52.83;;
42682;SDS011;28293;50.930;3.464;2022-12-17T16:16:49;122.60;;;52.03;;
42682;SDS011;28293;50.930;3.464;2022-12-17T16:19:16;121.65;;;51.08;;
42682;SDS011;28293;50.930;3.464;2022-12-17T16:21:43;118.28;;;50.88;;
42682;SDS011;28293;50.930;3.464;2022-12-17T16:24:09;123.13;;;54.65;;
42682;SDS011;28293;50.930;3.464;2022-12-17T16:26:35;126.53;;;52.40;;
42682;SDS011;28293;50.930;3.464;2022-12-17T16:29:02;129.50;;;53.75;;
42682;SDS011;28293;50.930;3.464;2022-12-17T16:31:28;120.57;;;53.90;;
42682;SDS011;28293;50.930;3.464;2022-12-17T16:33:54;123.38;;;55.22;;
42682;SDS011;28293;50.930;3.464;2022-12-17T16:36:20;122.22;;;51.92;;
42682;SDS011;28293;50.930;3.464;2022-12-17T16:38:50;120.82;;;52.33;;
42682;SDS011;28293;50.930;3.464;2022-12-17T16:41:19;124.68;;;53.40;;
42682;SDS011;28293;50.930;3.464;2022-12-17T16:43:56;126.35;;;55.13;;
42682;SDS011;28293;50.930;3.464;2022-12-17T16:46:41;121.05;;;54.63;;
42682;SDS011;28293;50.930;3.464;2022-12-17T16:49:13;135.02;;;54.30;;
42682;SDS011;28293;50.930;3.464;2022-12-17T16:51:50;132.38;;;56.15;;
42682;SDS011;28293;50.930;3.464;2022-12-17T16:54:20;120.88;;;52.67;;
42682;SDS011;28293;50.930;3.464;2022-12-17T16:56:51;129.57;;;55.60;;
42682;SDS011;28293;50.930;3.464;2022-12-17T16:59:19;133.32;;;57.83;;
42682;SDS011;28293;50.930;3.464;2022-12-17T17:01:46;137.00;;;58.08;;
42682;SDS011;28293;50.930;3.464;2022-12-17T17:04:17;138.65;;;59.28;;
42682;SDS011;28293;50.930;3.464;2022-12-17T17:06:55;121.93;;;54.50;;
42682;SDS011;28293;50.930;3.464;2022-12-17T17:09:24;124.78;;;51.90;;
42682;SDS011;28293;50.930;3.464;2022-12-17T17:12:00;122.50;;;55.22;;
42682;SDS011;28293;50.930;3.464;2022-12-17T17:14:39;123.00;;;55.05;;
42682;SDS011;28293;50.930;3.464;2022-12-17T17:17:08;129.27;;;56.22;;
42682;SDS011;28293;50.930;3.464;2022-12-17T17:19:46;125.70;;;53.28;;
42682;SDS011;28293;50.930;3.464;2022-12-17T17:22:17;128.48;;;56.67;;
42682;SDS011;28293;50.930;3.464;2022-12-17T17:25:05;120.43;;;55.90;;